CDF921N EFTU-EFHK
Flight info
| Callsign | CDF921N |
|---|---|
| Flight time | 1h 19m |
| Altitude | 13000 |
| Route | IPMOT Y368 LAKUT HKAP |
| Aircraft | A21N/M-SDE2E3FGHIRWXY/LB1 |
Departure
| Time | 2026-05-04 18:28 |
|---|---|
| Airport | Turku Airport (EFTU) |
Arrival
| Time | 2026-05-04 19:47 |
|---|---|
| Airport | Helsinki Vantaa Airport (EFHK) |
| Time | Latitude | Longitude | Altitude | Speed | Heading |
|---|---|---|---|---|---|
| 2026-05-04 18:03 | 60.51182 | 22.27335 | 180 ft | 0 kts | 149° |
| 2026-05-04 18:24 | 60.51181 | 22.27337 | 180 ft | 1 kts | 146° |
| 2026-05-04 18:24 | 60.51188 | 22.27365 | 180 ft | 4 kts | 8° |
| 2026-05-04 18:24 | 60.51205 | 22.27332 | 180 ft | 2 kts | 316° |
| 2026-05-04 18:24 | 60.51219 | 22.27304 | 180 ft | 4 kts | 316° |
| 2026-05-04 18:25 | 60.51243 | 22.27270 | 179 ft | 5 kts | 342° |
| 2026-05-04 18:25 | 60.51280 | 22.27287 | 178 ft | 6 kts | 30° |
| 2026-05-04 18:25 | 60.51321 | 22.27336 | 175 ft | 8 kts | 37° |
| 2026-05-04 18:25 | 60.51342 | 22.27441 | 173 ft | 9 kts | 83° |
| 2026-05-04 18:26 | 60.51346 | 22.27576 | 171 ft | 10 kts | 85° |
| 2026-05-04 18:26 | 60.51353 | 22.27730 | 169 ft | 12 kts | 85° |
| 2026-05-04 18:26 | 60.51398 | 22.27856 | 166 ft | 13 kts | 5° |
| 2026-05-04 18:26 | 60.51472 | 22.27849 | 165 ft | 6 kts | 339° |
| 2026-05-04 18:27 | 60.51476 | 22.27762 | 167 ft | 7 kts | 265° |
| 2026-05-04 18:27 | 60.51472 | 22.27645 | 169 ft | 11 kts | 265° |
| 2026-05-04 18:27 | 60.51449 | 22.27126 | 175 ft | 73 kts | 264° |
| 2026-05-04 18:27 | 60.51382 | 22.25648 | 172 ft | 134 kts | 263° |
| 2026-05-04 18:28 | 60.51310 | 22.23747 | 662 ft | 132 kts | 261° |
| 2026-05-04 18:28 | 60.51140 | 22.21965 | 1290 ft | 125 kts | 254° |
| 2026-05-04 18:28 | 60.50919 | 22.20329 | 1843 ft | 118 kts | 256° |
| 2026-05-04 18:28 | 60.50841 | 22.18608 | 2098 ft | 133 kts | 270° |
| 2026-05-04 18:29 | 60.50913 | 22.16604 | 2543 ft | 153 kts | 268° |
| 2026-05-04 18:29 | 60.50481 | 22.14536 | 3049 ft | 177 kts | 231° |
| 2026-05-04 18:29 | 60.49383 | 22.13119 | 3680 ft | 200 kts | 207° |
| 2026-05-04 18:29 | 60.47925 | 22.12705 | 4273 ft | 230 kts | 182° |
| 2026-05-04 18:30 | 60.44546 | 22.13580 | 5945 ft | 251 kts | 166° |
| 2026-05-04 18:30 | 60.43077 | 22.15601 | 6833 ft | 267 kts | 133° |
| 2026-05-04 18:30 | 60.42240 | 22.19115 | 7368 ft | 292 kts | 102° |
| 2026-05-04 18:31 | 60.42310 | 22.23289 | 8074 ft | 303 kts | 79° |
| 2026-05-04 18:31 | 60.42730 | 22.27501 | 8978 ft | 308 kts | 79° |
| 2026-05-04 18:31 | 60.43094 | 22.31762 | 9823 ft | 315 kts | 82° |
| 2026-05-04 18:31 | 60.43399 | 22.36301 | 10284 ft | 336 kts | 84° |
| 2026-05-04 18:32 | 60.43664 | 22.41158 | 10657 ft | 359 kts | 85° |
| 2026-05-04 18:32 | 60.43909 | 22.46327 | 11084 ft | 377 kts | 86° |
| 2026-05-04 18:32 | 60.44147 | 22.51670 | 11806 ft | 384 kts | 86° |
| 2026-05-04 18:32 | 60.44380 | 22.57125 | 12416 ft | 392 kts | 86° |
| 2026-05-04 18:33 | 60.44610 | 22.62638 | 12649 ft | 391 kts | 88° |
| 2026-05-04 18:33 | 60.44731 | 22.68120 | 12688 ft | 390 kts | 90° |
| 2026-05-04 18:33 | 60.44801 | 22.73614 | 12687 ft | 390 kts | 91° |
| 2026-05-04 18:33 | 60.44865 | 22.79021 | 12676 ft | 390 kts | 91° |
| 2026-05-04 18:34 | 60.44930 | 22.84509 | 12641 ft | 390 kts | 90° |
| 2026-05-04 18:34 | 60.44994 | 22.89999 | 12652 ft | 390 kts | 91° |
| 2026-05-04 18:34 | 60.45056 | 22.95498 | 12660 ft | 391 kts | 91° |
| 2026-05-04 18:34 | 60.45117 | 23.00998 | 12670 ft | 391 kts | 91° |
| 2026-05-04 18:35 | 60.45174 | 23.06507 | 12670 ft | 391 kts | 91° |
| 2026-05-04 18:35 | 60.45229 | 23.12010 | 12671 ft | 391 kts | 91° |
| 2026-05-04 18:35 | 60.45271 | 23.17503 | 12671 ft | 390 kts | 92° |
| 2026-05-04 18:35 | 60.45195 | 23.22998 | 12672 ft | 390 kts | 95° |
| 2026-05-04 18:36 | 60.45088 | 23.28481 | 12675 ft | 390 kts | 95° |
| 2026-05-04 18:36 | 60.44978 | 23.33895 | 12670 ft | 390 kts | 95° |
| 2026-05-04 18:36 | 60.44865 | 23.39375 | 12668 ft | 390 kts | 95° |
| 2026-05-04 18:36 | 60.44751 | 23.44857 | 12666 ft | 390 kts | 95° |
| 2026-05-04 18:37 | 60.44634 | 23.50341 | 12692 ft | 390 kts | 95° |
| 2026-05-04 18:37 | 60.44517 | 23.55816 | 12678 ft | 390 kts | 95° |
| 2026-05-04 18:37 | 60.44476 | 23.61283 | 12558 ft | 386 kts | 89° |
| 2026-05-04 18:37 | 60.44653 | 23.66672 | 12087 ft | 381 kts | 87° |
| 2026-05-04 18:38 | 60.44861 | 23.72020 | 11570 ft | 379 kts | 87° |
| 2026-05-04 18:38 | 60.45055 | 23.77245 | 11102 ft | 375 kts | 87° |
| 2026-05-04 18:38 | 60.45242 | 23.82479 | 10745 ft | 369 kts | 87° |
| 2026-05-04 18:38 | 60.45417 | 23.87583 | 10524 ft | 358 kts | 87° |
| 2026-05-04 18:39 | 60.45579 | 23.92535 | 10347 ft | 347 kts | 87° |
| 2026-05-04 18:39 | 60.45734 | 23.97330 | 10189 ft | 335 kts | 87° |
| 2026-05-04 18:39 | 60.45883 | 24.01973 | 10004 ft | 326 kts | 87° |
| 2026-05-04 18:39 | 60.46027 | 24.06538 | 9688 ft | 325 kts | 87° |
| 2026-05-04 18:40 | 60.46170 | 24.11111 | 9303 ft | 325 kts | 86° |
| 2026-05-04 18:40 | 60.46310 | 24.15659 | 8917 ft | 322 kts | 86° |
| 2026-05-04 18:40 | 60.46448 | 24.20166 | 8543 ft | 319 kts | 86° |
| 2026-05-04 18:40 | 60.46581 | 24.24575 | 8193 ft | 316 kts | 86° |
| 2026-05-04 18:41 | 60.46714 | 24.28991 | 7848 ft | 312 kts | 86° |
| 2026-05-04 18:41 | 60.46844 | 24.33357 | 7514 ft | 309 kts | 86° |
| 2026-05-04 18:41 | 60.46973 | 24.37719 | 7192 ft | 310 kts | 86° |
| 2026-05-04 18:41 | 60.47099 | 24.42086 | 6857 ft | 310 kts | 86° |
| 2026-05-04 18:42 | 60.47224 | 24.46424 | 6520 ft | 307 kts | 86° |
| 2026-05-04 18:42 | 60.47346 | 24.50723 | 6185 ft | 304 kts | 86° |
| 2026-05-04 18:42 | 60.47464 | 24.54978 | 5839 ft | 301 kts | 86° |
| 2026-05-04 18:42 | 60.47579 | 24.59202 | 5495 ft | 299 kts | 86° |
| 2026-05-04 18:43 | 60.47693 | 24.63387 | 5172 ft | 296 kts | 86° |
| 2026-05-04 18:43 | 60.47804 | 24.67487 | 4985 ft | 294 kts | 87° |
| 2026-05-04 18:43 | 60.47915 | 24.71612 | 4876 ft | 290 kts | 86° |
| 2026-05-04 18:43 | 60.48025 | 24.75745 | 4388 ft | 294 kts | 86° |
| 2026-05-04 18:44 | 60.48131 | 24.79839 | 4134 ft | 288 kts | 87° |
| 2026-05-04 18:44 | 60.48182 | 24.82519 | 3917 ft | 287 kts | 89° |
| 2026-05-04 18:44 | 60.48113 | 24.87914 | 3437 ft | 286 kts | 94° |
| 2026-05-04 18:44 | 60.47887 | 24.91908 | 3070 ft | 285 kts | 100° |
| 2026-05-04 18:45 | 60.47435 | 24.95788 | 2790 ft | 280 kts | 109° |
| 2026-05-04 18:45 | 60.46648 | 24.99288 | 2675 ft | 266 kts | 126° |
| 2026-05-04 18:45 | 60.45481 | 25.01945 | 2610 ft | 251 kts | 148° |
| 2026-05-04 18:45 | 60.43937 | 25.03332 | 2382 ft | 239 kts | 175° |
| 2026-05-04 18:46 | 60.42308 | 25.03674 | 2035 ft | 233 kts | 183° |
| 2026-05-04 18:46 | 60.40726 | 25.03659 | 1860 ft | 221 kts | 188° |
| 2026-05-04 18:46 | 60.39227 | 25.03426 | 1675 ft | 210 kts | 194° |
| 2026-05-04 18:46 | 60.37922 | 25.02738 | 1757 ft | 175 kts | 208° |
| 2026-05-04 18:47 | 60.36910 | 25.01707 | 1591 ft | 155 kts | 217° |
| 2026-05-04 18:47 | 60.36072 | 25.00535 | 1367 ft | 134 kts | 224° |
| 2026-05-04 18:47 | 60.35393 | 24.99371 | 1044 ft | 125 kts | 228° |
| 2026-05-04 18:47 | 60.34789 | 24.98087 | 760 ft | 126 kts | 231° |
| 2026-05-04 18:48 | 60.34206 | 24.96781 | 562 ft | 127 kts | 229° |
| 2026-05-04 18:48 | 60.33612 | 24.95472 | 359 ft | 126 kts | 227° |
| 2026-05-04 18:48 | 60.33014 | 24.94174 | 205 ft | 124 kts | 227° |
| 2026-05-04 18:48 | 60.32484 | 24.93004 | 180 ft | 104 kts | 228° |
| 2026-05-04 18:49 | 60.31865 | 24.91638 | 319 ft | 156 kts | 228° |
| 2026-05-04 18:49 | 60.31113 | 24.89953 | 1179 ft | 162 kts | 235° |
| 2026-05-04 18:49 | 60.30740 | 24.87915 | 2027 ft | 161 kts | 258° |
| 2026-05-04 18:49 | 60.30481 | 24.85305 | 1991 ft | 212 kts | 260° |
| 2026-05-04 18:50 | 60.30197 | 24.82337 | 2813 ft | 220 kts | 260° |
| 2026-05-04 18:50 | 60.29921 | 24.79475 | 3732 ft | 203 kts | 260° |
| 2026-05-04 18:50 | 60.29648 | 24.76668 | 4368 ft | 205 kts | 260° |
| 2026-05-04 18:50 | 60.29379 | 24.73837 | 4693 ft | 207 kts | 260° |
| 2026-05-04 18:51 | 60.29111 | 24.70984 | 4857 ft | 207 kts | 260° |
| 2026-05-04 18:51 | 60.28883 | 24.68123 | 4930 ft | 207 kts | 270° |
| 2026-05-04 18:51 | 60.29280 | 24.65254 | 4982 ft | 229 kts | 298° |
| 2026-05-04 18:51 | 60.30429 | 24.62943 | 5010 ft | 241 kts | 324° |
| 2026-05-04 18:52 | 60.32047 | 24.61880 | 5017 ft | 251 kts | 345° |
| 2026-05-04 18:52 | 60.33800 | 24.61536 | 5017 ft | 253 kts | 349° |
| 2026-05-04 18:52 | 60.35550 | 24.61868 | 5003 ft | 264 kts | 13° |
| 2026-05-04 18:52 | 60.37155 | 24.63769 | 5000 ft | 275 kts | 39° |
| 2026-05-04 18:53 | 60.38414 | 24.66718 | 5009 ft | 279 kts | 49° |
| 2026-05-04 18:53 | 60.39576 | 24.69857 | 5004 ft | 279 kts | 50° |
| 2026-05-04 18:53 | 60.40726 | 24.73020 | 4999 ft | 279 kts | 50° |
| 2026-05-04 18:53 | 60.41877 | 24.76175 | 4998 ft | 278 kts | 50° |
| 2026-05-04 18:54 | 60.43028 | 24.79328 | 4994 ft | 278 kts | 50° |
| 2026-05-04 18:54 | 60.44175 | 24.82484 | 4994 ft | 277 kts | 50° |
| 2026-05-04 18:54 | 60.45270 | 24.85585 | 4845 ft | 267 kts | 53° |
| 2026-05-04 18:54 | 60.46166 | 24.88809 | 4533 ft | 265 kts | 62° |
| 2026-05-04 18:55 | 60.46852 | 24.92265 | 4166 ft | 264 kts | 71° |
| 2026-05-04 18:55 | 60.47118 | 24.99556 | 3488 ft | 258 kts | 104° |
| 2026-05-04 18:55 | 60.46458 | 25.02869 | 3142 ft | 251 kts | 128° |
| 2026-05-04 18:56 | 60.45212 | 25.05191 | 2766 ft | 240 kts | 158° |
| 2026-05-04 18:56 | 60.43667 | 25.05886 | 2422 ft | 223 kts | 191° |
| 2026-05-04 18:56 | 60.42210 | 25.05158 | 2200 ft | 209 kts | 204° |
| 2026-05-04 18:56 | 60.40877 | 25.04339 | 2136 ft | 190 kts | 201° |
| 2026-05-04 18:57 | 60.39651 | 25.03711 | 1968 ft | 179 kts | 201° |
| 2026-05-04 18:57 | 60.38480 | 25.02987 | 1678 ft | 174 kts | 206° |
| 2026-05-04 18:57 | 60.37419 | 25.02023 | 1482 ft | 156 kts | 213° |
| 2026-05-04 18:57 | 60.36574 | 25.01069 | 1281 ft | 129 kts | 218° |
| 2026-05-04 18:58 | 60.35846 | 25.00051 | 1021 ft | 126 kts | 223° |
| 2026-05-04 18:58 | 60.35199 | 24.98869 | 779 ft | 124 kts | 226° |
| 2026-05-04 18:58 | 60.34591 | 24.97642 | 631 ft | 124 kts | 227° |
| 2026-05-04 18:58 | 60.34002 | 24.96345 | 481 ft | 126 kts | 227° |
| 2026-05-04 18:59 | 60.33428 | 24.95080 | 355 ft | 123 kts | 227° |
| 2026-05-04 18:59 | 60.32855 | 24.93819 | 202 ft | 117 kts | 227° |
| 2026-05-04 18:59 | 60.32355 | 24.92717 | 176 ft | 109 kts | 227° |
| 2026-05-04 18:59 | 60.31699 | 24.91274 | 522 ft | 152 kts | 228° |
| 2026-05-04 19:00 | 60.31012 | 24.89630 | 1496 ft | 155 kts | 245° |
| 2026-05-04 19:00 | 60.30719 | 24.87471 | 2152 ft | 171 kts | 260° |
| 2026-05-04 19:00 | 60.30466 | 24.84892 | 2414 ft | 206 kts | 260° |
| 2026-05-04 19:00 | 60.30189 | 24.82009 | 3281 ft | 206 kts | 260° |
| 2026-05-04 19:01 | 60.30015 | 24.79205 | 4089 ft | 202 kts | 275° |
| 2026-05-04 19:01 | 60.30504 | 24.76422 | 4591 ft | 229 kts | 300° |
| 2026-05-04 19:01 | 60.31553 | 24.73920 | 4847 ft | 236 kts | 309° |
| 2026-05-04 19:01 | 60.32701 | 24.71548 | 4960 ft | 237 kts | 310° |
| 2026-05-04 19:02 | 60.33863 | 24.69188 | 4991 ft | 237 kts | 310° |
| 2026-05-04 19:02 | 60.35060 | 24.66901 | 4994 ft | 241 kts | 320° |
| 2026-05-04 19:02 | 60.36641 | 24.65643 | 4994 ft | 253 kts | 347° |
| 2026-05-04 19:02 | 60.38420 | 24.65986 | 4996 ft | 265 kts | 13° |
| 2026-05-04 19:03 | 60.40020 | 24.67929 | 4997 ft | 275 kts | 38° |
| 2026-05-04 19:03 | 60.41346 | 24.70750 | 5006 ft | 277 kts | 44° |
| 2026-05-04 19:03 | 60.42602 | 24.73641 | 5003 ft | 277 kts | 45° |
| 2026-05-04 19:03 | 60.43869 | 24.76578 | 4996 ft | 277 kts | 45° |
| 2026-05-04 19:04 | 60.45131 | 24.79520 | 4994 ft | 277 kts | 45° |
| 2026-05-04 19:04 | 60.46380 | 24.82499 | 4994 ft | 278 kts | 51° |
| 2026-05-04 19:04 | 60.47246 | 24.85997 | 4815 ft | 278 kts | 68° |
| 2026-05-04 19:04 | 60.47883 | 24.89711 | 4422 ft | 280 kts | 70° |
| 2026-05-04 19:05 | 60.48493 | 24.93463 | 4000 ft | 281 kts | 70° |
| 2026-05-04 19:05 | 60.49103 | 24.97271 | 3537 ft | 285 kts | 70° |
| 2026-05-04 19:05 | 60.49710 | 25.01092 | 3175 ft | 284 kts | 70° |
| 2026-05-04 19:05 | 60.50309 | 25.04867 | 2981 ft | 276 kts | 70° |
| 2026-05-04 19:06 | 60.50687 | 25.08637 | 2947 ft | 269 kts | 91° |
| 2026-05-04 19:06 | 60.50302 | 25.12212 | 2835 ft | 255 kts | 118° |
| 2026-05-04 19:06 | 60.49375 | 25.15137 | 2569 ft | 247 kts | 129° |
| 2026-05-04 19:06 | 60.48346 | 25.17885 | 2262 ft | 243 kts | 130° |
| 2026-05-04 19:07 | 60.47305 | 25.20573 | 1991 ft | 241 kts | 137° |
| 2026-05-04 19:07 | 60.45941 | 25.22354 | 1946 ft | 231 kts | 168° |
| 2026-05-04 19:07 | 60.44410 | 25.22383 | 1966 ft | 214 kts | 206° |
| 2026-05-04 19:07 | 60.43358 | 25.20693 | 1971 ft | 186 kts | 246° |
| 2026-05-04 19:08 | 60.42946 | 25.18239 | 1978 ft | 184 kts | 256° |
| 2026-05-04 19:08 | 60.42488 | 25.15804 | 1990 ft | 187 kts | 246° |
| 2026-05-04 19:08 | 60.41806 | 25.13579 | 1995 ft | 190 kts | 237° |
| 2026-05-04 19:08 | 60.40941 | 25.11516 | 1996 ft | 194 kts | 229° |
| 2026-05-04 19:09 | 60.40022 | 25.09547 | 1992 ft | 192 kts | 231° |
| 2026-05-04 19:09 | 60.39168 | 25.07685 | 1999 ft | 169 kts | 233° |
| 2026-05-04 19:09 | 60.38411 | 25.06018 | 1800 ft | 154 kts | 233° |
| 2026-05-04 19:09 | 60.37706 | 25.04464 | 1592 ft | 148 kts | 233° |
| 2026-05-04 19:10 | 60.37027 | 25.02976 | 1409 ft | 133 kts | 232° |
| 2026-05-04 19:10 | 60.36423 | 25.01687 | 1195 ft | 124 kts | 232° |
| 2026-05-04 19:10 | 60.35843 | 25.00390 | 1043 ft | 124 kts | 233° |
| 2026-05-04 19:10 | 60.35270 | 24.99116 | 832 ft | 125 kts | 229° |
| 2026-05-04 19:11 | 60.34677 | 24.97821 | 697 ft | 125 kts | 227° |
| 2026-05-04 19:11 | 60.34094 | 24.96546 | 527 ft | 123 kts | 227° |
| 2026-05-04 19:11 | 60.33487 | 24.95223 | 900 ft | 119 kts | 227° |
| 2026-05-04 19:11 | 60.32917 | 24.94050 | 1673 ft | 119 kts | 232° |
| 2026-05-04 19:12 | 60.32317 | 24.92833 | 2022 ft | 125 kts | 232° |
| 2026-05-04 19:12 | 60.31397 | 24.89802 | 2596 ft | 142 kts | 260° |
| 2026-05-04 19:12 | 60.31180 | 24.87666 | 3007 ft | 170 kts | 260° |
| 2026-05-04 19:13 | 60.30935 | 24.85165 | 3517 ft | 196 kts | 262° |
| 2026-05-04 19:13 | 60.31076 | 24.82310 | 4017 ft | 222 kts | 290° |
| 2026-05-04 19:13 | 60.31966 | 24.79643 | 4639 ft | 235 kts | 307° |
| 2026-05-04 19:13 | 60.33099 | 24.77229 | 4914 ft | 237 kts | 310° |
| 2026-05-04 19:14 | 60.34258 | 24.74858 | 4987 ft | 237 kts | 310° |
| 2026-05-04 19:14 | 60.35478 | 24.72608 | 4998 ft | 241 kts | 323° |
| 2026-05-04 19:14 | 60.37091 | 24.71494 | 4995 ft | 254 kts | 349° |
| 2026-05-04 19:14 | 60.38868 | 24.71993 | 4995 ft | 266 kts | 16° |
| 2026-05-04 19:15 | 60.40432 | 24.74077 | 4998 ft | 276 kts | 42° |
| 2026-05-04 19:15 | 60.41648 | 24.77034 | 5004 ft | 278 kts | 49° |
| 2026-05-04 19:15 | 60.42807 | 24.80171 | 5001 ft | 278 kts | 50° |
| 2026-05-04 19:15 | 60.43978 | 24.83376 | 5005 ft | 289 kts | 50° |
| 2026-05-04 19:16 | 60.45181 | 24.86661 | 5000 ft | 290 kts | 50° |
| 2026-05-04 19:16 | 60.46370 | 24.89909 | 4762 ft | 286 kts | 50° |
| 2026-05-04 19:16 | 60.47554 | 24.93146 | 4367 ft | 286 kts | 50° |
| 2026-05-04 19:16 | 60.48735 | 24.96393 | 4001 ft | 285 kts | 50° |
| 2026-05-04 19:17 | 60.49904 | 24.99620 | 3651 ft | 283 kts | 50° |
| 2026-05-04 19:17 | 60.50940 | 25.02987 | 3361 ft | 281 kts | 67° |
| 2026-05-04 19:17 | 60.51262 | 25.06768 | 3189 ft | 273 kts | 94° |
| 2026-05-04 19:17 | 60.50789 | 25.10367 | 3019 ft | 259 kts | 122° |
| 2026-05-04 19:18 | 60.49708 | 25.13140 | 2804 ft | 246 kts | 138° |
| 2026-05-04 19:18 | 60.48503 | 25.15510 | 2595 ft | 236 kts | 140° |
| 2026-05-04 19:18 | 60.47252 | 25.17485 | 2413 ft | 220 kts | 161° |
| 2026-05-04 19:18 | 60.45827 | 25.17998 | 2123 ft | 203 kts | 191° |
| 2026-05-04 19:19 | 60.44471 | 25.17379 | 2007 ft | 199 kts | 200° |
| 2026-05-04 19:19 | 60.43247 | 25.16202 | 1969 ft | 192 kts | 220° |
| 2026-05-04 19:19 | 60.42251 | 25.14426 | 1984 ft | 191 kts | 230° |
| 2026-05-04 19:19 | 60.41392 | 25.12577 | 1976 ft | 174 kts | 232° |
| 2026-05-04 19:20 | 60.40583 | 25.10800 | 1975 ft | 171 kts | 232° |
| 2026-05-04 19:20 | 60.39781 | 25.09032 | 1980 ft | 170 kts | 232° |
| 2026-05-04 19:20 | 60.38981 | 25.07271 | 1916 ft | 169 kts | 232° |
| 2026-05-04 19:20 | 60.38213 | 25.05583 | 1743 ft | 155 kts | 232° |
| 2026-05-04 19:21 | 60.37520 | 25.04078 | 1574 ft | 132 kts | 232° |
| 2026-05-04 19:21 | 60.36926 | 25.02800 | 1281 ft | 122 kts | 233° |
| 2026-05-04 19:21 | 60.36358 | 25.01529 | 1116 ft | 123 kts | 233° |
| 2026-05-04 19:21 | 60.35784 | 25.00244 | 962 ft | 123 kts | 230° |
| 2026-05-04 19:22 | 60.35209 | 24.99000 | 803 ft | 122 kts | 230° |
| 2026-05-04 19:22 | 60.34638 | 24.97722 | 653 ft | 123 kts | 227° |
| 2026-05-04 19:22 | 60.34043 | 24.96450 | 487 ft | 126 kts | 227° |
| 2026-05-04 19:22 | 60.33454 | 24.95144 | 356 ft | 124 kts | 228° |
| 2026-05-04 19:23 | 60.32881 | 24.93877 | 204 ft | 117 kts | 228° |
| 2026-05-04 19:23 | 60.32377 | 24.92765 | 177 ft | 112 kts | 227° |
| 2026-05-04 19:23 | 60.31718 | 24.91328 | 527 ft | 144 kts | 227° |
| 2026-05-04 19:23 | 60.31068 | 24.89807 | 1248 ft | 148 kts | 242° |
| 2026-05-04 19:24 | 60.30760 | 24.87761 | 1609 ft | 158 kts | 259° |
| 2026-05-04 19:24 | 60.30550 | 24.85484 | 1999 ft | 179 kts | 260° |
| 2026-05-04 19:24 | 60.30303 | 24.82868 | 2616 ft | 203 kts | 260° |
| 2026-05-04 19:24 | 60.30024 | 24.79899 | 3205 ft | 226 kts | 260° |
| 2026-05-04 19:25 | 60.29727 | 24.76704 | 4026 ft | 236 kts | 260° |
| 2026-05-04 19:25 | 60.29423 | 24.73441 | 4610 ft | 238 kts | 260° |
| 2026-05-04 19:25 | 60.29308 | 24.70119 | 4849 ft | 240 kts | 278° |
| 2026-05-04 19:25 | 60.29940 | 24.67000 | 4962 ft | 247 kts | 303° |
| 2026-05-04 19:26 | 60.31249 | 24.64717 | 4993 ft | 254 kts | 325° |
| 2026-05-04 19:26 | 60.32835 | 24.63102 | 5008 ft | 256 kts | 329° |
| 2026-05-04 19:26 | 60.34455 | 24.61592 | 5025 ft | 256 kts | 330° |
| 2026-05-04 19:26 | 60.36109 | 24.60329 | 5011 ft | 262 kts | 344° |
| 2026-05-04 19:27 | 60.37959 | 24.60464 | 5005 ft | 274 kts | 9° |
| 2026-05-04 19:27 | 60.39682 | 24.62228 | 5013 ft | 285 kts | 35° |
| 2026-05-04 19:27 | 60.40991 | 24.65274 | 5019 ft | 290 kts | 52° |
| 2026-05-04 19:27 | 60.42091 | 24.68693 | 5026 ft | 290 kts | 55° |
| 2026-05-04 19:28 | 60.43166 | 24.72144 | 5025 ft | 290 kts | 55° |
| 2026-05-04 19:28 | 60.44237 | 24.75601 | 5024 ft | 290 kts | 55° |
| 2026-05-04 19:28 | 60.45297 | 24.79040 | 4860 ft | 286 kts | 55° |
| 2026-05-04 19:28 | 60.46352 | 24.82466 | 4440 ft | 287 kts | 55° |
| 2026-05-04 19:29 | 60.47397 | 24.85846 | 4007 ft | 287 kts | 55° |
| 2026-05-04 19:29 | 60.48454 | 24.89273 | 3645 ft | 286 kts | 55° |
| 2026-05-04 19:29 | 60.49501 | 24.92684 | 3313 ft | 284 kts | 55° |
| 2026-05-04 19:29 | 60.50536 | 24.96075 | 2998 ft | 281 kts | 55° |
| 2026-05-04 19:30 | 60.51483 | 24.99496 | 2771 ft | 276 kts | 68° |
| 2026-05-04 19:30 | 60.51772 | 25.03260 | 2594 ft | 267 kts | 95° |
| 2026-05-04 19:30 | 60.51260 | 25.06757 | 2463 ft | 253 kts | 124° |
| 2026-05-04 19:30 | 60.50182 | 25.09447 | 2238 ft | 242 kts | 139° |
| 2026-05-04 19:31 | 60.49002 | 25.11810 | 2006 ft | 241 kts | 140° |
| 2026-05-04 19:31 | 60.47795 | 25.14148 | 1966 ft | 239 kts | 140° |
| 2026-05-04 19:31 | 60.46448 | 25.16002 | 1973 ft | 231 kts | 166° |
| 2026-05-04 19:31 | 60.44902 | 25.16330 | 1969 ft | 221 kts | 194° |
| 2026-05-04 19:32 | 60.43385 | 25.15812 | 1979 ft | 220 kts | 200° |
| 2026-05-04 19:32 | 60.42093 | 25.14403 | 1993 ft | 209 kts | 229° |
| 2026-05-04 19:32 | 60.41111 | 25.12235 | 2000 ft | 209 kts | 233° |
| 2026-05-04 19:32 | 60.40154 | 25.10034 | 1990 ft | 202 kts | 232° |
| 2026-05-04 19:33 | 60.39261 | 25.08021 | 2013 ft | 181 kts | 232° |
| 2026-05-04 19:33 | 60.38452 | 25.06200 | 1855 ft | 170 kts | 233° |
| 2026-05-04 19:33 | 60.37694 | 25.04515 | 1621 ft | 158 kts | 232° |
| 2026-05-04 19:33 | 60.36989 | 25.02972 | 1381 ft | 136 kts | 232° |
| 2026-05-04 19:34 | 60.36407 | 25.01670 | 1163 ft | 120 kts | 233° |
| 2026-05-04 19:34 | 60.35838 | 25.00410 | 971 ft | 122 kts | 231° |
| 2026-05-04 19:34 | 60.35265 | 24.99145 | 803 ft | 122 kts | 230° |
| 2026-05-04 19:34 | 60.34690 | 24.97873 | 671 ft | 123 kts | 228° |
| 2026-05-04 19:35 | 60.34110 | 24.96608 | 491 ft | 123 kts | 227° |
| 2026-05-04 19:35 | 60.33543 | 24.95358 | 355 ft | 121 kts | 228° |
| 2026-05-04 19:35 | 60.32986 | 24.94115 | 240 ft | 121 kts | 227° |
| 2026-05-04 19:35 | 60.32457 | 24.92943 | 180 ft | 102 kts | 225° |
| 2026-05-04 19:36 | 60.31901 | 24.91711 | 228 ft | 148 kts | 228° |
| 2026-05-04 19:36 | 60.31206 | 24.90195 | 1104 ft | 148 kts | 231° |
| 2026-05-04 19:36 | 60.30732 | 24.88288 | 1726 ft | 162 kts | 258° |
| 2026-05-04 19:36 | 60.30506 | 24.85915 | 2331 ft | 182 kts | 260° |
| 2026-05-04 19:37 | 60.30415 | 24.83293 | 3120 ft | 195 kts | 280° |
| 2026-05-04 19:37 | 60.31034 | 24.80698 | 3774 ft | 223 kts | 304° |
| 2026-05-04 19:37 | 60.32131 | 24.78254 | 4416 ft | 244 kts | 309° |
| 2026-05-04 19:37 | 60.33313 | 24.75799 | 4834 ft | 248 kts | 310° |
| 2026-05-04 19:38 | 60.34532 | 24.73317 | 4975 ft | 250 kts | 314° |
| 2026-05-04 19:38 | 60.36078 | 24.71615 | 4996 ft | 261 kts | 339° |
| 2026-05-04 19:38 | 60.37914 | 24.71441 | 4994 ft | 272 kts | 5° |
| 2026-05-04 19:38 | 60.39686 | 24.72903 | 5003 ft | 282 kts | 30° |
| 2026-05-04 19:39 | 60.41098 | 24.75701 | 5000 ft | 288 kts | 47° |
| 2026-05-04 19:39 | 60.42327 | 24.78921 | 5000 ft | 288 kts | 50° |
| 2026-05-04 19:39 | 60.43526 | 24.82172 | 5003 ft | 288 kts | 50° |
| 2026-05-04 19:39 | 60.44728 | 24.85429 | 4991 ft | 288 kts | 50° |
| 2026-05-04 19:40 | 60.45914 | 24.88648 | 4771 ft | 285 kts | 50° |
| 2026-05-04 19:40 | 60.47085 | 24.91843 | 4340 ft | 285 kts | 50° |
| 2026-05-04 19:40 | 60.48266 | 24.95076 | 3952 ft | 285 kts | 50° |
| 2026-05-04 19:40 | 60.49441 | 24.98309 | 3607 ft | 284 kts | 50° |
| 2026-05-04 19:41 | 60.50607 | 25.01523 | 3285 ft | 282 kts | 50° |
| 2026-05-04 19:41 | 60.51589 | 25.04941 | 2999 ft | 283 kts | 69° |
| 2026-05-04 19:41 | 60.51844 | 25.08884 | 2731 ft | 283 kts | 96° |
| 2026-05-04 19:41 | 60.51293 | 25.12674 | 2451 ft | 279 kts | 122° |
| 2026-05-04 19:42 | 60.50100 | 25.15713 | 2256 ft | 274 kts | 138° |
| 2026-05-04 19:42 | 60.48737 | 25.18399 | 2115 ft | 273 kts | 140° |
| 2026-05-04 19:42 | 60.47356 | 25.20867 | 1973 ft | 261 kts | 152° |
| 2026-05-04 19:42 | 60.45752 | 25.22078 | 1942 ft | 236 kts | 178° |
| 2026-05-04 19:43 | 60.44179 | 25.22123 | 1933 ft | 219 kts | 200° |
| 2026-05-04 19:43 | 60.42948 | 25.20598 | 1937 ft | 206 kts | 233° |
| 2026-05-04 19:43 | 60.42072 | 25.18321 | 1980 ft | 207 kts | 236° |
| 2026-05-04 19:43 | 60.41166 | 25.16055 | 1992 ft | 205 kts | 233° |
| 2026-05-04 19:44 | 60.40271 | 25.13958 | 1986 ft | 189 kts | 233° |
| 2026-05-04 19:44 | 60.39406 | 25.11981 | 1998 ft | 187 kts | 232° |
| 2026-05-04 19:44 | 60.38568 | 25.10095 | 1894 ft | 175 kts | 232° |
| 2026-05-04 19:44 | 60.37792 | 25.08371 | 1653 ft | 160 kts | 233° |
| 2026-05-04 19:45 | 60.37091 | 25.06821 | 1416 ft | 135 kts | 233° |
| 2026-05-04 19:45 | 60.36505 | 25.05526 | 1199 ft | 120 kts | 233° |
| 2026-05-04 19:45 | 60.35947 | 25.04276 | 1021 ft | 121 kts | 231° |
| 2026-05-04 19:45 | 60.35377 | 25.03011 | 843 ft | 122 kts | 231° |
| 2026-05-04 19:46 | 60.34802 | 25.01742 | 670 ft | 123 kts | 229° |
| 2026-05-04 19:46 | 60.34225 | 25.00450 | 512 ft | 123 kts | 227° |
| 2026-05-04 19:46 | 60.33654 | 24.99202 | 365 ft | 119 kts | 227° |
| 2026-05-04 19:46 | 60.33099 | 24.97975 | 216 ft | 120 kts | 227° |
| 2026-05-04 19:47 | 60.32575 | 24.96815 | 179 ft | 95 kts | 227° |
| 2026-05-04 19:47 | 60.32243 | 24.96088 | 183 ft | 46 kts | 227° |
| 2026-05-04 19:47 | 60.32109 | 24.95822 | 181 ft | 20 kts | 195° |
| 2026-05-04 19:47 | 60.31996 | 24.95905 | 178 ft | 12 kts | 138° |
| 2026-05-04 19:48 | 60.31989 | 24.95917 | 178 ft | 0 kts | 137° |
| 2026-05-04 19:48 | 60.31980 | 24.95935 | 177 ft | 6 kts | 137° |
| 2026-05-04 19:48 | 60.31968 | 24.96015 | 176 ft | 7 kts | 64° |
| 2026-05-04 19:49 | 60.32000 | 24.96112 | 174 ft | 10 kts | 53° |
| 2026-05-04 19:49 | 60.32050 | 24.96228 | 173 ft | 12 kts | 47° |
| 2026-05-04 19:49 | 60.32113 | 24.96367 | 173 ft | 15 kts | 47° |
| 2026-05-04 19:49 | 60.32188 | 24.96530 | 173 ft | 17 kts | 47° |
| 2026-05-04 19:50 | 60.32249 | 24.96673 | 173 ft | 9 kts | 68° |
| 2026-05-04 19:50 | 60.32209 | 24.96777 | 171 ft | 12 kts | 150° |
| 2026-05-04 19:50 | 60.32132 | 24.96868 | 172 ft | 11 kts | 150° |
| 2026-05-04 19:50 | 60.32091 | 24.96882 | 172 ft | 7 kts | 190° |
| 2026-05-04 19:51 | 60.32045 | 24.96862 | 172 ft | 6 kts | 195° |
| 2026-05-04 19:51 | 60.32015 | 24.96847 | 172 ft | 1 kts | 193° |
| 2026-05-04 19:51 | 60.32013 | 24.96846 | 172 ft | 0 kts | 193° |
| 2026-05-04 19:52 | 60.32012 | 24.96846 | 172 ft | 0 kts | 192° |